Terminal Aerodrome Forecast
Issued by NWS Twin Cities, MN

Home | Current Version | Previous Version | Graphics & Text | Print | Product List | Glossary On
Versions: 1 2 3 4 5 6 7 8 9 10 11 12 13 14 15 16 17
000
FTUS43 KMPX 191120
TAFEAU
TAF
KEAU 191120Z 1912/2012 00000KT 1SM BR SCT002
      TEMPO 1912/1914 1/4SM FG VV002
     FM191400 24004KT 6SM BR SCT025
     FM191500 25007KT P6SM FEW040
     FM200000 18003KT P6SM SKC
     FM201000 17003KT P6SM BKN250=

USA.gov is the U.S. government's official web portal to all federal, state and local government web resources and services.